createdAt,value
2023-04-28T00:04:24.093Z,101304.88
2023-04-28T00:09:20.117Z,101484.03
2023-04-28T00:14:16.302Z,101320.47
2023-04-28T00:19:10.664Z,101292.88
2023-04-28T00:24:04.156Z,101294.97
2023-04-28T00:29:09.913Z,101351.38
2023-04-28T00:34:22.227Z,101516.38
2023-04-28T00:39:16.917Z,101528.47
2023-04-28T00:44:37.016Z,101488.81
2023-04-28T00:49:46.141Z,101374.59
2023-04-28T00:54:39.622Z,101321.13
2023-04-28T01:05:02.766Z,101455.25
2023-04-28T01:09:59.350Z,101289.94
2023-04-28T01:14:57.568Z,101526.84
2023-04-28T01:19:50.945Z,101525.09
2023-04-28T01:24:45.973Z,101527.69
2023-04-28T01:29:41.050Z,101358.66
2023-04-28T01:34:55.937Z,101375.63
2023-04-28T01:39:50.870Z,101542.56
2023-04-28T01:45:00.096Z,101435.72
2023-04-28T01:50:50.334Z,101538.06
2023-04-28T01:56:25.968Z,101350.03
2023-04-28T02:01:25.523Z,101407.38
2023-04-28T02:06:26.546Z,101319.59
2023-04-28T02:11:23.632Z,101276.66
2023-04-28T02:16:49.546Z,101304.69
2023-04-28T02:21:48.885Z,101466.44
2023-04-28T02:26:47.073Z,101450.59
2023-04-28T02:32:05.667Z,101263.00
2023-04-28T02:44:00.177Z,101492.19
2023-04-28T02:57:01.940Z,101302.38
2023-04-28T03:02:17.979Z,101396.16
2023-04-28T03:07:16.609Z,101515.75
2023-04-28T03:12:11.368Z,101490.72
2023-04-28T03:17:04.761Z,101561.88
2023-04-28T03:21:58.138Z,101604.91
2023-04-28T03:26:51.344Z,101492.19
2023-04-28T03:31:46.137Z,101624.66
2023-04-28T03:36:39.703Z,101633.19
2023-04-28T03:41:40.085Z,101604.72
2023-04-28T03:46:53.372Z,101610.66
2023-04-28T03:51:46.828Z,101626.03
2023-04-28T03:56:41.532Z,101621.69
2023-04-28T04:01:36.054Z,101602.09
2023-04-28T04:06:30.913Z,101668.78
2023-04-28T04:11:24.225Z,101669.91
2023-04-28T04:16:17.758Z,101674.44
2023-04-28T04:21:10.955Z,101676.13
2023-04-28T04:26:05.842Z,101650.06
2023-04-28T04:30:59.750Z,101693.75
2023-04-28T04:35:53.140Z,101698.41
2023-04-28T04:40:46.352Z,101701.59
2023-04-28T04:45:41.068Z,101667.66
2023-04-28T04:50:34.372Z,101651.22
2023-04-28T04:55:28.736Z,101713.31
2023-04-28T05:00:24.000Z,101646.34
2023-04-28T05:05:22.457Z,101681.38
2023-04-28T05:10:42.563Z,101699.88
2023-04-28T05:15:36.220Z,101722.88
2023-04-28T05:20:54.150Z,101732.69
2023-04-28T05:25:47.543Z,101667.50
2023-04-28T05:30:41.424Z,101655.25
2023-04-28T05:35:37.553Z,101726.66
2023-04-28T05:40:32.649Z,101733.56
2023-04-28T05:45:27.076Z,101742.09
2023-04-28T05:50:21.785Z,101616.84
2023-04-28T05:55:17.071Z,101756.56
2023-04-28T06:00:35.820Z,101757.31
2023-04-28T06:05:29.786Z,101776.94
2023-04-28T06:10:28.434Z,101658.28
2023-04-28T06:15:23.184Z,101706.53
2023-04-28T06:20:28.309Z,101585.97
2023-04-28T06:25:21.774Z,101780.34
2023-04-28T06:30:21.065Z,101642.88
2023-04-28T06:35:17.243Z,101791.50
2023-04-28T06:40:12.207Z,101779.13
2023-04-28T06:45:10.871Z,101758.97
2023-04-28T06:50:04.966Z,101621.09
2023-04-28T06:55:03.623Z,101716.28
2023-04-28T06:59:57.143Z,101695.06
2023-04-28T07:04:50.912Z,101596.47
2023-04-28T07:09:46.830Z,101616.22
2023-04-28T07:14:41.897Z,101556.59
2023-04-28T07:19:36.975Z,101775.16
2023-04-28T07:24:30.906Z,101620.34
2023-04-28T07:29:24.338Z,101764.50
2023-04-28T07:34:19.152Z,101690.16
2023-04-28T07:39:12.630Z,101682.19
2023-04-28T07:44:06.716Z,101605.41
2023-04-28T07:49:04.926Z,101532.78
2023-04-28T07:54:00.502Z,101730.78
2023-04-28T07:58:54.072Z,101590.00
2023-04-28T08:03:48.162Z,101664.53
2023-04-28T08:08:47.548Z,101727.88
2023-04-28T08:13:42.357Z,101548.84
2023-04-28T08:18:35.854Z,101595.38
2023-04-28T08:23:32.445Z,101733.38
2023-04-28T08:28:31.569Z,101742.03
2023-04-28T08:33:29.594Z,101738.91
2023-04-28T08:38:25.834Z,101626.94
2023-04-28T08:43:24.393Z,101598.19
2023-04-28T08:48:31.571Z,101553.06
2023-04-28T08:53:32.449Z,101554.34
2023-04-28T08:58:36.481Z,101663.88
2023-04-28T09:03:38.023Z,101551.59
2023-04-28T09:08:36.163Z,101547.63
2023-04-28T09:13:29.609Z,101620.25
2023-04-28T09:18:23.112Z,101696.59
2023-04-28T09:23:22.671Z,101535.72
2023-04-28T09:28:24.796Z,101681.19
2023-04-28T09:33:18.397Z,101621.00
2023-04-28T09:38:11.905Z,101605.34
2023-04-28T09:43:26.738Z,101614.56
2023-04-28T09:48:28.567Z,101673.66
2023-04-28T09:53:24.763Z,101535.03
2023-04-28T09:58:23.025Z,101596.28
2023-04-28T10:03:21.874Z,101590.34
2023-04-28T10:08:21.147Z,101633.66
2023-04-28T10:13:14.868Z,101657.59
2023-04-28T10:18:10.681Z,101471.03
2023-04-28T10:23:27.794Z,101652.94
2023-04-28T10:28:23.471Z,101584.53
2023-04-28T10:33:30.289Z,101657.97
2023-04-28T10:38:24.872Z,101629.53
2023-04-28T10:43:40.688Z,101546.19
2023-04-28T10:48:59.303Z,101494.94
2023-04-28T10:54:20.681Z,101640.72
2023-04-28T10:59:28.500Z,101538.72
2023-04-28T11:04:24.587Z,101641.34
2023-04-28T11:09:49.979Z,101632.84
2023-04-28T11:14:46.767Z,101553.09
2023-04-28T11:19:52.845Z,101629.19
2023-04-28T11:24:58.133Z,101619.53
2023-04-28T11:29:57.805Z,101462.31
2023-04-28T11:34:54.447Z,101610.97
2023-04-28T11:39:48.248Z,101587.41
2023-04-28T11:44:55.436Z,101620.84
2023-04-28T11:49:49.628Z,101618.84
2023-04-28T11:54:44.799Z,101492.13
2023-04-28T11:59:39.947Z,101616.72
2023-04-28T12:04:38.108Z,101496.41
2023-04-28T12:09:33.200Z,101456.72
2023-04-28T12:14:28.192Z,101567.31
2023-04-28T12:19:24.235Z,101585.16
2023-04-28T12:24:21.975Z,101520.69
2023-04-28T12:29:35.572Z,101560.06
2023-04-28T12:34:30.986Z,101554.09
2023-04-28T12:39:24.976Z,101443.19
2023-04-28T12:44:18.461Z,101535.19
2023-04-28T12:49:11.761Z,101528.97
2023-04-28T12:54:07.039Z,101535.63
2023-04-28T12:59:00.344Z,101523.25
2023-04-28T13:03:53.870Z,101527.56
2023-04-28T13:08:47.997Z,101503.56
2023-04-28T13:13:43.093Z,101526.78
2023-04-28T13:18:36.383Z,101472.88
2023-04-28T13:23:29.627Z,101493.91
2023-04-28T13:28:22.982Z,101473.63
2023-04-28T13:33:20.644Z,101506.84
2023-04-28T13:38:15.198Z,101464.44
2023-04-28T13:43:08.442Z,101466.72
2023-04-28T13:48:03.446Z,101493.81
2023-04-28T13:52:58.812Z,101452.59
2023-04-28T13:57:53.470Z,101480.41
2023-04-28T14:02:49.746Z,101451.28
2023-04-28T14:07:43.758Z,101467.53
2023-04-28T14:12:38.819Z,101431.56
2023-04-28T14:17:32.636Z,101392.31
2023-04-28T14:22:27.948Z,101476.13
2023-04-28T14:27:24.453Z,101447.56
2023-04-28T14:32:21.843Z,101428.56
2023-04-28T14:37:16.513Z,101448.53
2023-04-28T14:42:10.090Z,101426.44
2023-04-28T14:47:05.512Z,101377.44
2023-04-28T14:52:02.968Z,101330.56
2023-04-28T14:56:56.467Z,101441.13
2023-04-28T15:01:50.765Z,101459.41
2023-04-28T15:06:44.173Z,101422.16
2023-04-28T15:11:38.867Z,101421.78
2023-04-28T15:16:32.409Z,101421.88
2023-04-28T15:21:29.017Z,101362.31
2023-04-28T15:26:23.816Z,101454.72
2023-04-28T15:31:18.576Z,101428.13
2023-04-28T15:36:12.569Z,101364.28
2023-04-28T15:41:06.119Z,101444.94
2023-04-28T15:46:01.146Z,101410.91
2023-04-28T15:50:58.668Z,101338.81
2023-04-28T15:55:52.010Z,101427.06
2023-04-28T16:00:46.604Z,101404.38
2023-04-28T16:05:40.462Z,101428.03
2023-04-28T16:10:35.073Z,101420.50
2023-04-28T16:15:28.280Z,101415.47
2023-04-28T16:20:21.702Z,101210.25
2023-04-28T16:25:15.011Z,101415.38
2023-04-28T16:30:12.229Z,101392.06
2023-04-28T16:35:07.874Z,101347.09
2023-04-28T16:40:01.536Z,101421.72
2023-04-28T16:44:55.046Z,101418.94
2023-04-28T16:49:50.861Z,101315.06
2023-04-28T16:54:44.386Z,101395.66
2023-04-28T16:59:37.776Z,101405.16
2023-04-28T17:04:33.203Z,101337.75
2023-04-28T17:09:28.189Z,101417.06
2023-04-28T17:14:21.486Z,101420.78
2023-04-28T17:19:14.978Z,101354.56
2023-04-28T17:24:08.800Z,101407.44
2023-04-28T17:29:03.520Z,101427.53
2023-04-28T17:33:58.320Z,101395.81
2023-04-28T17:38:52.412Z,101362.63
2023-04-28T17:43:53.926Z,101366.69
2023-04-28T17:48:49.291Z,101429.00
2023-04-28T17:53:46.120Z,101288.38
2023-04-28T17:58:51.608Z,101259.38
2023-04-28T18:03:45.479Z,101467.88
2023-04-28T18:08:42.750Z,101407.28
2023-04-28T18:13:39.406Z,101230.75
2023-04-28T18:18:35.534Z,101283.38
2023-04-28T18:23:30.505Z,101378.56
2023-04-28T18:28:29.883Z,101465.72
2023-04-28T18:33:26.041Z,101412.78
2023-04-28T18:38:20.491Z,101304.38
2023-04-28T18:48:46.100Z,101464.19
2023-04-28T18:53:39.597Z,101312.44
2023-04-28T18:58:33.011Z,101293.84
2023-04-28T19:03:34.342Z,101469.38
2023-04-28T19:08:29.268Z,101472.84
2023-04-28T19:13:26.906Z,101458.53
2023-04-28T19:18:29.874Z,101324.53
2023-04-28T19:23:23.380Z,101459.50
2023-04-28T19:28:23.221Z,101398.88
2023-04-28T19:33:21.930Z,101264.66
2023-04-28T19:38:18.192Z,101452.19
2023-04-28T19:43:16.048Z,101332.66
2023-04-28T19:48:14.381Z,101316.78
2023-04-28T19:53:08.399Z,101464.59
2023-04-28T19:58:02.811Z,101459.88
2023-04-28T20:03:02.532Z,101232.13
2023-04-28T20:07:58.183Z,101421.75
2023-04-28T20:12:51.760Z,101370.00
2023-04-28T20:17:46.215Z,101394.34
2023-04-28T20:22:41.350Z,101377.84
2023-04-28T20:27:38.207Z,101456.91
2023-04-28T20:32:35.198Z,101422.13
2023-04-28T20:37:30.229Z,101450.50
2023-04-28T20:42:27.238Z,101449.84
2023-04-28T20:47:24.510Z,101446.03
2023-04-28T20:52:21.983Z,101408.75
2023-04-28T20:57:16.510Z,101355.44
2023-04-28T21:02:10.483Z,101310.28
2023-04-28T21:07:07.038Z,101262.69
2023-04-28T21:12:11.026Z,101436.91
2023-04-28T21:17:09.611Z,101366.75
2023-04-28T21:22:05.741Z,101412.06
2023-04-28T21:27:02.931Z,101309.69
2023-04-28T21:31:56.436Z,101337.88
2023-04-28T21:36:52.788Z,101474.03
2023-04-28T21:41:50.519Z,101405.66
2023-04-28T21:46:44.921Z,101420.22
2023-04-28T21:51:51.056Z,101343.81
2023-04-28T21:56:44.399Z,101496.69
2023-04-28T22:01:41.793Z,101481.03
2023-04-28T22:06:37.584Z,101478.69
2023-04-28T22:11:33.565Z,101449.81
2023-04-28T22:16:31.353Z,101424.59
2023-04-28T22:21:29.900Z,101315.03
2023-04-28T22:26:24.463Z,101416.44
2023-04-28T22:31:20.368Z,101344.50
2023-04-28T22:36:19.334Z,101282.81
2023-04-28T22:42:23.111Z,101206.53
2023-04-28T22:47:21.963Z,101277.66
2023-04-28T22:52:41.200Z,101318.41
2023-04-28T22:57:40.886Z,101203.47
2023-04-28T23:02:46.553Z,101235.06
2023-04-28T23:07:46.773Z,101337.84
2023-04-28T23:12:43.993Z,101431.72
2023-04-28T23:17:42.883Z,101425.78
2023-04-28T23:22:36.319Z,101434.94
2023-04-28T23:27:32.067Z,101362.59
2023-04-28T23:32:27.087Z,101372.09
2023-04-28T23:37:20.715Z,101445.28
2023-04-28T23:42:18.838Z,101437.66
2023-04-28T23:47:12.179Z,101241.44
2023-04-28T23:52:09.593Z,101308.72
2023-04-28T23:57:03.007Z,101447.25
